paysage


accueil Historique Album photos Relevés mensuels Relevés annuels Liens Livre d'or Nous contacter


Voici une page dédiée aux relevés de la station météo jour après jour.
Les températures sont prises sous abris (voir photo).

Les relevés ont débuté en Aout 2009

2010: janvier / fevrier / mars / avril

Archives




avril 2010

Dates Temps  matin/après midi T°c à
10h
T°c à
16h
pluviometrie pression à 10h/à 16h vent observations
01/04/10 mitigé / pluie 4.3°c 6°c 1011.4hpa/1013.6hpa ouest: 18km/h humidité: 80%: 63%
02/04/10 mitigé 5.2°c 11°c 1013.8hpa/1010.7hpa sud:22km/h humidité: 72%: 51%
03/04/10 pluie 6.7°c 6.4°c 15mm 1009.4hpa/1008.9hpa sud: 21km/h humidité: 85%: 87%
04/04/10 mitigé 7.5°c 7.9°c 1010.6hpa/1014.2hpa sud ouest: 15km/h humidité: 79%: 74%
05/04/10 soleil 5°c 11.5°c 1026.4hpa/1026hpa sud: 12km/h humidité: 82%: 50%
06/04/10 soleil 5.2°c 18°c 1021.9hpa/1017.8hpa sud 23km/h humidité: 80%:38%
07/04/10 soleil 12°c 18°c 1016.5hpa/1016.3hpa sud ouest: 32km/h humidité: 55%: 44%
08/04/10 pluie fine / couvert 10.6°c 12.6°c 0.5mm 1022.2hpa/1023.4hpa nord est: 12km/h humidité: 84%: 78%
09/04/10 soleil 10.6°c 15°c 1027.6hpa/1027hpa nord est: 12km/h humidité: 83%: 65%
10/04/10 beau 9.3°c 15°c 1026.4hpa/1023.5hpa nord est: 9km/h humidité: 73%: 54%
11/04/10 soleil 7.1°c 9.3°c 1018.3hpa/1016hpa nord est: 15km/h humidité:68%: 59%
12/04/10 couvert 5.3°c 8.1°c 1015.1hpa/1013.1hpa nord est: 13km/h humidité: 76%: 69%
13/04/10 couvert 5.8°c 8.5°c 1013hpa/ 1012.8hpa nord est: 10km/h humidité: 86%: 73%
14/04/10 mitigé 5°c 13°c 1013hpa/ 1012.2hpa nord est: 23km/h humidité: 88%: 63%
15/04/10 mitigé 6.2°c 13.3°c 1013.4hpa/1013.3hpa nord est: 13km/h humidité: 85%: 56%
16/04/10 mitigé 9.1°c 14.6°c 1017.3hpa/1015.2hpa nord est: 25km/h humidité: 80%: 55%
17/04/10 soleil 8°c 17°c 1017.8hpa/1015.2hpa nord est: 18km/h humidité: 73%: 51%
18/04/10 soleil 8.8°c 19°c 1012.4hpa/1010.6hpa calme humidité: 78%: 43%
19/04/10 soleil


mars 2010

Dates Temps  matin/après midi T°c à
10h
T°c à
16h
pluviometrie pression à 10h/à 16h vent observations
01/03/10 ensoleillé 4.9°c 9.5°c 1010.4hpa/1010.3hpa sud ouest: 11km/h humidité: 78%: 50%
02/03/10 pluie / soleil 5.3°c 7.8°c 0.5mm. 1017.7hpa/1019.9hpa sud ouest: 18km/h humidité: 89%: 82%
03/03/10 ensoleillé 2.9°c 8°c 1014.4hpa/1009.9hpa nord est: 31km/h humidité: 82%: 41%
04/03/10 ensoleillé 2.8°c 6.8°c 1009.9hpa/1012.3hpa nord est: 32km/h humidité: 63%: 52%
05/03/10 ensoleillé -0.4°c 3.7°c 1024.1hpa/1023.4hpa nord est: 8km/h humidité: 70%: 45%
06/03/10 averses de neige 0.6°c 2.4°°c 1016.3hpa/1017.4hpa nord est: 13km/h humidité: 89%: 68%
07/03/10 ensoleillé et vent -3.1°c 2°c 1021.3hpa/1018.8hpa nord est: 26km/h humidité: 72%: 54%
08/03/10 ensoleillé et vent -2.6°c 2.6°c 1018.7hpa/1015.8hpa nord est: 25km/h humidité: 59%: 46%
09/03/10 soleil -2.8°c 0.1°c 1015.9hpa/1014.9hpa est: 24km/h humidité: 64%: 48%
10/03/10 soleil / couvert -2.2°c 0.4°c 1012.7hpa/1012.1hpa est: 20km/h humidité: 53%: 46%
11/03/10 neige -0.7°c 2.2°c 1013.2hpa/1012.9hpa est: 9km/h humidité: 81%: 70%
12/03/10 gelée ensoleillé -5°c 5.3°c 1017.9hpa/1017.1hpa calme t°c mini à 8h: -9.2°c
13/03/10 soleil / couvert 1.3°c 4.6°c 1024.4hpa/1024.7hpa calme humidité: 82%: 69%
14/03/10 couvert 2.7°c 4.3°c 1025.7hpa/1023.6hpa sud ouest: 13km/h humidité: 81%: 73%
15/03/10 couvert 3.8°c 8.8°c 1025.4hpa/1023.6hpa nul humidité: 85%: 64%
16/03/10 couvert / beau 5°c 10°c 1025.7hpa/1024.9hpa calme humidité:78%: 55%
17/03/10 soleil 5.2°c 14.2°c 1026.3hpa/1024hpa sud: 10km/h humidité: 77%: 42%
18/03/10 soleil 9.9°c 15.6°c 1023.6hpa/1019.8hpa sud: 28km/h humidité: 45%: 29%
19/03/10 beau 11°c 18°c 1021.2hpa/1016.8hpa sud: 20km/h humidité: 65%: 46%
20/03/10 couvert 12°c 13°c 5mm (nuit) 1014.7hpa/1013.5hpa sud ouest: 18km/h humidité: 77%: 78%
21/03/10 mitigé / vent 12.4°c 10.4°c 3mm ( nuit) 1014.5hpa/1018.5hpa sud ouest: 16km/h humidité: 86%: 74%
22/03/10 beau 6.5°c 15.2°c 1020.7hpa/1018.7hpa calme humidité: 90%: 50%
23/03/10 beau 8.8°c 18.5°c 1019.7hpa/1015.4hpa calme humidité: 76%: 40%
24/03/10 mitigé 13.2°c 18.6°c 1012.1hpa/1009.3hpa sud ouest: 20km/h humidité: 70%: 46%
25/03/10 mitigé 14.7°c 17.5°c 1007.5hpa/1005.7hpa sud: 21km/h humidité: 64%: 53%
26/03/10 pluie 7.5°c 6.4°c 7.2mm 1007.1hpa/1009.2hpa sud: 15km/h humidité: 89%: 88%
27/03/10 pluie 7.6°c 9.2°c 10mm 1006.6hpa/1006.8hpa sud ouest: 17km/h humidité: 87%: 82%
28/03/10 pluie 8.1°c 8.6°c 8mm 1014.1hpa/1011.3hpa sud: 11km/h humidité: 87%: 88%
29/03/10 pluie / soleil 10.3°c 15.6°c 6mm 1008.1hpa/1003.9hpa calme humidité: 89%: 65%
30/03/10 couvert / vent 11.1°c 8.1°c 0.5mm 995.5hpa / 996.4hpa sud: 21km/h humidité: 62%: 85%
31/03/10 couvert 7°c 9°c 1002.7hpa/1002.7hpa sud: 19km/h humidité: 75%: 69%
TOTAL 2 jours de neige/5 jours de pluie max: 14.7°c
min: -9.2°c
max: 18.6°c
min: 0.1°c
41mm



fevrier 2010

Dates Temps  matin/après midi T°c à
10h
T°c à
16h
pluviometrie pression à 10h/à 16h vent observations
01/02/2010 couvert / neige -3.4°c
-2.1°c

1011hpa/1012.8hpa
sud ouest: 20km/h
humidité: 87%: 88%
02/02/2010 neige et vent -0.4°c 1°c 1017.2hpa/1013hpa sud ouest: 28km/h rafale à 53.2km/h à 22h
03/02/2010 pluie 1.9°c 3.5°c 3.1mm 1011.4hpa/1013.6hpa sud ouest: 18km/h humidité: 93%: 90%
04/02/2010 ensoleillé 1.8°c 7.6°c 1011.7hpa/1009.3hpa calme humidité: 90%: 69%
05/02/2010 pluie / couvert 5.5°c 6.3°c 1.5mm 1004.3hpa/1006hpa sud ouest: 10km/h humidité: 91%: 92%
06/02/2010 pluie / éclaircies 3.2°c 5.6°c 0.5mm 1007.8hpa/1009.5hpa sud ouest: 8km/h humidité: 93%: 88%
07/02/2010 couvert 2.5°c 3.4°c 1017.3hpa/1015.6hpa calme humidité: 91%: 88%
08/02/2010 couvert 0.4°c 2.4°c 1006.1hpa/1001.8hpa nord est: 8km/h humidité: 89%: 80%
09/02/2010 couvert -0.4°c 0.4°c 999.7hpa / 999.8hpa nord: 6km/h humidité: 86%: 83%
10/02/2010 mitigé / quelques flocons -4.7°c -2.6°c 1006.2hpa/1005.4hpa nord est: 9km/h humidité: 80%: 76%
11/02/2010 neige -5.1°c -3.4°c 1004hpa/1003.7hpa nord est: 15km/h humidité: 82%: 83%
12/02/2010 neige / couvert -3°c -1.6°c 1010.6hpa/1011.5hpa nord est: 11km/h humidité: 86%: 82%
13/02/2010 couvert -3.2°c -2.5°c 1013.1hpa/1011.5hpa nord est: 10km/h humidité: 86%: 80%
14/02/2010 couvert -3.3°c -2°c 1011.7hpa/1010.6hpa calme humidité: 83%: 72%
15/02/2010 neige faible / couvert -2.2°c -0.2°c 1007hpa/1004.6hpa calme humidité: 85%: 78%
16/02/2010 soleil -4.2°c 4.3°c 1000.4hpa/997.5hpa calme humidité: 82%: 69%
17/02/2010 pluie 3.3°c 6.1°c 3.1mm 991hpa / 990.1hpa sud est: 6km/h humidité: 90%: 90%
18/02/2010 couvert / ensoleillé 4.8°c 8°c 997.8hpa / 997hpa sud: 14km/h humidité: 93%: 76%
19/02/2010 couvert 4.2°c 4.2°c 992.5hpa / 994.3hpa nord ouest: 15km/h humidité: 89%: 74%
20/02/2010 mitigé / quelques flocons 1.8°c 1.6°c 998.9hpa / 999hpa sud: 13km/h humidité: 82%: 90%
21/02/2010 neige / éclaircies 1.5°c 6.9°c 1001hpa/997.2hpa sud: 14km/h humidité: 91%: 71%
22/02/2010 pluie fine / soleil 6.2°c 11.5°c 994.1hpa / 990.9hpa sud: 26km/h rafale à 46km/h à 21h
23/02/2010 mitigé 7.9°c 11°c 1mm 994.1hpa / 995.1hpa sud: 20.5km/h humidité: 91%: 83%
24/02/2010 mitigé 7.4°c 11.6°c 1mm 1000.1hpa / 999.3hpa sud: 26km/h humidité: 91%: 73%
25/02/2010 couvert / pluie fine 8.1°c 8.8°c 1mm 999.7hpa / 995.5hpa sud: 30km/h humidité: 79%: 88%
26/02/2010 pluie vent fort 7°c 6°c 1mm 992.4hpa / 1000.8hpa sud ouest: 34km/h rafales max à 70km/h et 60km/h
27/02/2010 ensoleillé 6.4°c 10.6°c 1mm 1005.4hpa/998.8hpa sud ouest: 16km/h humidité: 76%: 51%
28/02/2010 tempête / vent fort ensoleillé 12.3°c 9.9°c 989.3hpa / 998.3hpa sud ouest: 40km/h rafale max à 11h: 100km/h
TOTAL 8 jours de neige/8 jours de pluie max: 12.3°c
min: -5.1°c
max: 11.6°c
min: -3.4°c
15mm



Janvier 2010

Dates Temps  matin/après midi T°c à
10h
T°c à
16h
pluviometrie pression à 10h/à 16h vent observations
01/01/2010 couvert / neige 3.1°c 0.6°c 1.5mm 990.8hpa / 995.9hpa calme humidité:  94%: 94%
02/01/2010 beau -3.2°c 0.1°c 1015.2hpa/1018.3hpa calme -3.7°c à 8h
03/01/2010 ensoleillé -2.9 1.9°c 1019hpa/1016.9hpa calme -3°c à 9h
04/01/2010 couvert -3.6°c -3.2°c 1014hpa/1011.4hpa nord est: 6.1km/h -4.7°c à 11h45
05/01/2010 ensoleillé -5.1°c -2.5°c 1004.4hpa/1000.5hpa est: 10km/h -6.5°c à 7h40
06/01/2010 couvert / neige -4.2°c -3.1°c 1000.4hpa/1000.7hpa sud ouest: 11km/h neige fine à 19h: 0.5cm
07/01/2010 neige -2.1°c -1°c 1004.6hpa/1006hpa calme neige par intermittence: 2.5cm
08/01/2010 couvert / neige -2.1°c -3°c 1007hpa/1002.4hpa nord est: 24.1km/h 43.9km/h à 13h
formations de congères
09/01/2010 couvert -4.4°c -3.4°c 1005.3hpa/1004.6hpa nord est: 12km/h humidité: 84%: 82%
10/01/2010 couvert -3.2°c -2.4°c 1010hpa/1011.9hpa calme 2cm de neige dans la nui
11/01/2010 couvert / neige fine -3.4°c -0.9°c 1014.3hpa/1014.4hpa nul humidité: 83%: 81%
12/01/2010 couvert / soleil -2.4°c 0.8°c 1012.6hpa/1006hpa calme humidité: 87%: 77%
13/01/2010 neige / pluie fine 1.2°c 2.3°c 0.5mm 1001.1hpa/1003.4hpa sud: 12km/h humidité: 91%: 94%
14/01/2010 ensoleillé -2.2°c 0.4°c 1002.2hpa/1002.3hpa calme verglas
15/01/2010 couvert 0.5°c 1.8°c 1018.1hpa/1021.3hpa calme verglas
16/01/2010 couvert / pluie -0.1°c 3°c 11mm 1017.3hpa/1012.8hpa sud est: 10km/h vent la nuit du 16 au 17: rafale à 52km/h
17/01/2010 couvert / éclaircies 5.3°c 5.8°c 1015.6hpa/1020.6hpa sud ouest: 20km/h humidité: 93%: 81%
18/01/2010 éclaircies 3°c 6.4°c 0.5mm 1025.3hpa/1023.8hpa calme humidité: 92%: 74%
19/01/2010 brouillard 0.1°c 0.9°c 1021.4hpa/1018.7hpa nul verglas
20/01/2010 brouillard givrant / pluie -0.9°c 1.4°c 2.5mm 1011.4hpa/1009.7hpa nul verglas / pluie neige en soirée
21/01/2010 couvert / pluie fine 2.4°c 3.3°c 10mm 1018.9hpa/1019.7hpa sud ouest: 5km/h humidité: 94%: 93%
22/01/2010 ensoleillé 2.9°c 6.1°c
1021.4hpa/1020.1hpa nul humidité: 91%: 81%
23/01/2010 brumeux / ensoleillé -0.4°c 3°c 1019.8hpa/1018.3hpa nul humidité: 91%: 86%
24/01/2010 pluie 1.9°c 3.4°c 5.1mm 1020.2hpa/1019.6hpa sud : 4km/h humidité: 90%: 91%
25/01/2010 couvert 0.8°c 2.4°c 1024.1hpa/1025hpa calme humidité: 93%: 89%
26/01/2010 couvert 0.3°c -1.4°c 1028.6hpa/1028hpa nord est: 24km/h humidité: 90%: 84%
27/01/2010 ensoleillé -5.5°c -2.2°c 1027.5hpa/1023.9hpa calme humidité: 84%:77%
28/01/2010 neige -3.1°c -1.4°c 1011hpa/1008.6hpa sud ouest: 15km/h humidité: 88%:92%
29/01/2010 neige 0.3°c 0.6°c 994.5hpa / 986.2hpa sud: 20km/h humidité: 92%:91%
30/01/2009 ensoleillé / averse de neige -2°c -0.8°c 995hpa / 995.6hpa sud ouest: 12km/h humidité: 89%:77%
31/01/2010 éclaircies -3.6°c -0.4°c 1005.3hpa/1006.9hpa calme t°c la plus basse: à 4h: -8.5°c
TOTAL 8 jours de neige/5 jours de pluie max: 5.3°c
min: -8.5°c
max: 6.4°c
min: -3.4°c
31.1mm